| Date | Time | Temp. (oF) | Dew Point (oF) | Rel. Hum. (%) | Press. (in.) | Wind Dir. | Wind Speed (mph) | Hourly Rainfall (in.) |
|
|---|---|---|---|---|---|---|---|---|---|
| 1 | 01/07 | 00:00 | 7 | 6 | 98 | 30.05 | SSW | 0 | 0.00 |
| 2 | 01/06 | 23:00 | 8 | 7 | 98 | 30.07 | SSW | 0 | 0.00 |
| 3 | 01/06 | 22:00 | 10 | 9 | 99 | 30.07 | NNE | 0 | 0.00 |
| 4 | 01/06 | 21:00 | 12 | 11 | 98 | 30.11 | S | 0 | 0.00 |
| 5 | 01/06 | 20:00 | 14 | 13 | 97 | 30.11 | S | 0 | 0.00 |
| 6 | 01/06 | 19:00 | 16 | 15 | 96 | 30.12 | SSW | 0 | 0.00 |
| 7 | 01/06 | 18:00 | 18 | 16 | 94 | 30.11 | N | 0 | 0.00 |
| 8 | 01/06 | 17:00 | 20 | 17 | 91 | 30.11 | SSW | 2 | 0.00 |
| 9 | 01/06 | 16:00 | 21 | 18 | 90 | 30.09 | SSW | 0 | 0.00 |
| 10 | 01/06 | 15:00 | 22 | 19 | 90 | 30.12 | W | 0 | 0.01 |
| 11 | 01/06 | 14:00 | 22 | 19 | 90 | 30.11 | S | 0 | 0.00 |
| 12 | 01/06 | 13:00 | 20 | 17 | 91 | 30.13 | S | 2 | 0.00 |
| 13 | 01/06 | 12:00 | 20 | 17 | 91 | 30.17 | S | 0 | 0.00 |
| 14 | 01/06 | 11:00 | 18 | 16 | 92 | 30.24 | S | 3 | 0.01 |
| 15 | 01/06 | 10:00 | 17 | 15 | 93 | 30.30 | SSE | 1 | 0.00 |
| 16 | 01/06 | 09:00 | 15 | 14 | 96 | 30.32 | SSE | 4 | 0.03 |
| 17 | 01/06 | 08:00 | 15 | 13 | 94 | 30.34 | S | 0 | 0.04 |
| 18 | 01/06 | 07:00 | 15 | 13 | 93 | 30.32 | ESE | 3 | 0.01 |
| 19 | 01/06 | 06:00 | 15 | 11 | 87 | 30.37 | ENE | 2 | 0.00 |
| 20 | 01/06 | 05:00 | 17 | 3 | 56 | 30.39 | WSW | 2 | 0.00 |
| 21 | 01/06 | 04:00 | 17 | 3 | 55 | 30.38 | ENE | 0 | 0.00 |
| 22 | 01/06 | 03:00 | 17 | 3 | 55 | 30.40 | NNW | 0 | 0.00 |
| 23 | 01/06 | 02:00 | 17 | 3 | 55 | 30.41 | N | 5 | 0.00 |
| 24 | 01/06 | 01:00 | 17 | 2 | 53 | 30.43 | N | 1 | 0.00 |